LJMB METAR and TAF | Updated Today

LJMB METAR

Maribor Airport

Observation time: 8 min. ago

LJMB 032300Z AUTO VRB01KT 2100 R32/0400N BR VV001 M03/M03 Q1015

Need help? Read our tutorial on how to read METARs or read the parsed version below.

Maribor Airport (LJMB) METAR

  • Weather conditions on Fri, 03 Dec 2021 23:00:00 +0000 (8 min. ago):
  • Present conditions: Mist
  • Clouds: Vertical visibility at 30 meters
  • Visibility: 2100 meters
  • Wind: Variable at 1 knots
  • Temperature: -3 celsius
  • Dew point: -3 celsius
  • Pressure: 1015 millibars
  • Remarks: None


Useful to know...

LJMB TAF

Maribor Airport

TAF LJMB 031700Z 0318/0418 20008KT 9999 FEW030
Observation time: 6:08 hr. ago
Need help? Read our tutorial on how to read TAFs or read the parsed version below.

Parsed version of TAF for Maribor Airport (LJMB)

  • From 03 December at 18:00 UTC, to day 04 of the month at 18:00 UTC
  • Clouds: A few at 914 meters
  • Visibility: Greater than 10 km
  • Wind: 200 degrees at 8